createdAt,value
2024-02-18T00:02:22.094Z,100.00
2024-02-18T00:04:48.834Z,100.00
2024-02-18T00:07:15.499Z,100.00
2024-02-18T00:09:42.100Z,100.00
2024-02-18T00:12:08.690Z,100.00
2024-02-18T00:14:35.263Z,100.00
2024-02-18T00:17:02.260Z,100.00
2024-02-18T00:19:28.921Z,100.00
2024-02-18T00:21:55.534Z,100.00
2024-02-18T00:24:22.175Z,100.00
2024-02-18T00:26:58.643Z,100.00
2024-02-18T00:29:26.625Z,100.00
2024-02-18T00:31:53.974Z,100.00
2024-02-18T00:34:24.668Z,100.00
2024-02-18T00:36:52.464Z,100.00
2024-02-18T00:39:19.458Z,100.00
2024-02-18T00:41:45.992Z,100.00
2024-02-18T00:44:12.499Z,100.00
2024-02-18T00:46:45.445Z,100.00
2024-02-18T00:49:18.992Z,100.00
2024-02-18T00:51:46.574Z,100.00
2024-02-18T00:54:13.416Z,100.00
2024-02-18T00:56:40.035Z,100.00
2024-02-18T00:59:06.610Z,100.00
2024-02-18T01:01:33.310Z,100.00
2024-02-18T01:04:00.537Z,100.00
2024-02-18T01:06:27.195Z,100.00
2024-02-18T01:08:53.760Z,100.00
2024-02-18T01:11:20.260Z,100.00
2024-02-18T01:13:46.765Z,100.00
2024-02-18T01:16:13.558Z,100.00
2024-02-18T01:18:44.705Z,100.00
2024-02-18T01:21:12.176Z,100.00
2024-02-18T01:23:38.884Z,100.00
2024-02-18T01:26:06.073Z,100.00
2024-02-18T01:28:32.555Z,100.00
2024-02-18T01:30:59.211Z,100.00
2024-02-18T01:33:25.822Z,100.00
2024-02-18T01:35:52.353Z,100.00
2024-02-18T01:38:18.834Z,100.00
2024-02-18T01:40:45.456Z,100.00
2024-02-18T01:43:14.265Z,100.00
2024-02-18T01:45:42.016Z,100.00
2024-02-18T01:48:09.173Z,100.00
2024-02-18T01:50:36.150Z,100.00
2024-02-18T01:53:04.147Z,100.00
2024-02-18T01:55:33.123Z,100.00
2024-02-18T01:58:01.485Z,100.00
2024-02-18T02:00:28.704Z,100.00
2024-02-18T02:02:55.707Z,100.00
2024-02-18T02:05:22.527Z,100.00
2024-02-18T02:07:52.954Z,100.00
2024-02-18T02:10:20.121Z,100.00
2024-02-18T02:12:46.791Z,100.00
2024-02-18T02:15:13.825Z,100.00
2024-02-18T02:17:40.597Z,100.00
2024-02-18T02:20:11.955Z,100.00
2024-02-18T02:22:39.592Z,100.00
2024-02-18T02:25:09.971Z,100.00
2024-02-18T02:27:42.735Z,100.00
2024-02-18T02:30:09.692Z,100.00
2024-02-18T02:32:37.087Z,100.00
2024-02-18T02:35:04.667Z,100.00
2024-02-18T02:37:31.504Z,100.00
2024-02-18T02:39:58.265Z,100.00
2024-02-18T02:42:24.930Z,100.00
2024-02-18T02:44:51.739Z,100.00
2024-02-18T02:47:18.303Z,100.00
2024-02-18T02:49:44.927Z,100.00
2024-02-18T02:52:11.734Z,100.00
2024-02-18T02:54:38.374Z,100.00
2024-02-18T02:57:05.196Z,100.00
2024-02-18T02:59:31.716Z,100.00
2024-02-18T03:01:58.289Z,100.00
2024-02-18T03:04:25.097Z,100.00
2024-02-18T03:06:51.781Z,100.00
2024-02-18T03:09:18.505Z,100.00
2024-02-18T03:11:45.270Z,100.00
2024-02-18T03:14:11.784Z,100.00
2024-02-18T03:16:38.278Z,100.00
2024-02-18T03:19:05.342Z,100.00
2024-02-18T03:21:32.011Z,100.00
2024-02-18T03:23:58.654Z,100.00
2024-02-18T03:26:27.066Z,100.00
2024-02-18T03:28:54.062Z,100.00
2024-02-18T03:31:20.996Z,100.00
2024-02-18T03:33:48.056Z,100.00
2024-02-18T03:36:14.838Z,100.00
2024-02-18T03:38:41.431Z,100.00
2024-02-18T03:41:08.643Z,100.00
2024-02-18T03:43:35.748Z,100.00
2024-02-18T03:46:03.532Z,100.00
2024-02-18T03:48:30.523Z,100.00
2024-02-18T03:50:57.512Z,100.00
2024-02-18T03:53:24.184Z,100.00
2024-02-18T03:55:50.836Z,100.00
2024-02-18T03:58:17.553Z,100.00
2024-02-18T04:00:47.649Z,100.00
2024-02-18T04:03:15.095Z,100.00
2024-02-18T04:05:42.919Z,100.00
2024-02-18T04:08:09.965Z,100.00
2024-02-18T04:10:36.565Z,100.00
2024-02-18T04:13:03.378Z,100.00
2024-02-18T04:15:30.019Z,100.00
2024-02-18T04:17:56.719Z,100.00
2024-02-18T04:20:23.530Z,100.00
2024-02-18T04:22:50.114Z,100.00
2024-02-18T04:25:16.652Z,100.00
2024-02-18T04:27:43.374Z,100.00
2024-02-18T04:30:10.168Z,100.00
2024-02-18T04:32:36.770Z,100.00
2024-02-18T04:35:04.761Z,100.00
2024-02-18T04:37:31.541Z,100.00
2024-02-18T04:39:58.709Z,100.00
2024-02-18T04:42:25.576Z,100.00
2024-02-18T04:44:52.186Z,100.00
2024-02-18T04:47:18.802Z,100.00
2024-02-18T04:49:45.585Z,100.00
2024-02-18T04:52:12.257Z,100.00
2024-02-18T04:54:40.441Z,100.00
2024-02-18T04:57:07.664Z,100.00
2024-02-18T04:59:37.363Z,100.00
2024-02-18T05:02:04.422Z,100.00
2024-02-18T05:04:32.960Z,100.00
2024-02-18T05:07:01.164Z,100.00
2024-02-18T05:09:27.991Z,100.00
2024-02-18T05:11:55.511Z,100.00
2024-02-18T05:14:22.121Z,100.00
2024-02-18T05:16:49.200Z,100.00
2024-02-18T05:19:15.909Z,100.00
2024-02-18T05:21:43.432Z,100.00
2024-02-18T05:24:14.920Z,100.00
2024-02-18T05:26:41.472Z,100.00
2024-02-18T05:29:07.992Z,100.00
2024-02-18T05:31:36.136Z,100.00
2024-02-18T05:34:03.467Z,100.00
2024-02-18T05:36:30.588Z,100.00
2024-02-18T05:38:57.190Z,100.00
2024-02-18T05:41:23.750Z,100.00
2024-02-18T05:43:50.367Z,100.00
2024-02-18T05:46:17.107Z,100.00
2024-02-18T05:48:44.374Z,100.00
2024-02-18T05:51:10.949Z,100.00
2024-02-18T05:53:37.886Z,100.00
2024-02-18T05:56:04.752Z,100.00
2024-02-18T05:58:31.276Z,100.00
2024-02-18T06:00:58.021Z,100.00
2024-02-18T06:03:24.696Z,100.00
2024-02-18T06:05:52.076Z,100.00
2024-02-18T06:08:18.660Z,100.00
2024-02-18T06:10:45.301Z,100.00
2024-02-18T06:13:12.005Z,100.00
2024-02-18T06:15:38.723Z,100.00
2024-02-18T06:18:05.916Z,100.00
2024-02-18T06:20:32.630Z,100.00
2024-02-18T06:22:59.121Z,100.00
2024-02-18T06:25:25.665Z,100.00
2024-02-18T06:27:53.373Z,100.00
2024-02-18T06:30:20.101Z,100.00
2024-02-18T06:32:47.253Z,100.00
2024-02-18T06:35:13.963Z,100.00
2024-02-18T06:37:42.926Z,100.00
2024-02-18T06:40:11.222Z,100.00
2024-02-18T06:42:37.982Z,100.00
2024-02-18T06:45:05.155Z,100.00
2024-02-18T06:47:32.293Z,100.00
2024-02-18T06:49:59.223Z,100.00
2024-02-18T06:52:25.933Z,100.00
2024-02-18T06:54:52.565Z,100.00
2024-02-18T06:57:19.169Z,100.00
2024-02-18T06:59:45.702Z,100.00
2024-02-18T07:02:13.522Z,100.00
2024-02-18T07:04:40.197Z,100.00
2024-02-18T07:07:06.827Z,100.00
2024-02-18T07:09:33.505Z,100.00
2024-02-18T07:12:00.061Z,100.00
2024-02-18T07:14:26.579Z,100.00
2024-02-18T07:16:53.120Z,100.00
2024-02-18T07:19:19.744Z,100.00
2024-02-18T07:21:47.305Z,100.00
2024-02-18T07:24:13.955Z,100.00
2024-02-18T07:26:40.565Z,100.00
2024-02-18T07:29:07.105Z,100.00
2024-02-18T07:31:37.754Z,100.00
2024-02-18T07:34:07.813Z,100.00
2024-02-18T07:36:34.666Z,100.00
2024-02-18T07:39:01.584Z,100.00
2024-02-18T07:41:28.097Z,100.00
2024-02-18T07:43:54.765Z,100.00
2024-02-18T07:46:21.491Z,100.00
2024-02-18T07:48:48.214Z,100.00
2024-02-18T07:51:14.848Z,100.00
2024-02-18T07:53:41.320Z,100.00
2024-02-18T07:56:07.953Z,100.00
2024-02-18T07:58:34.813Z,100.00
2024-02-18T08:01:01.447Z,100.00
2024-02-18T08:03:28.078Z,100.00
2024-02-18T08:05:54.605Z,100.00
2024-02-18T08:08:21.129Z,100.00
2024-02-18T08:10:48.314Z,100.00
2024-02-18T08:13:15.083Z,100.00
2024-02-18T08:15:41.706Z,100.00
2024-02-18T08:18:09.781Z,100.00
2024-02-18T08:20:40.499Z,100.00
2024-02-18T08:23:08.164Z,100.00
2024-02-18T08:25:35.108Z,100.00
2024-02-18T08:28:02.080Z,100.00
2024-02-18T08:30:28.660Z,100.00
2024-02-18T08:32:55.464Z,100.00
2024-02-18T08:35:22.311Z,100.00
2024-02-18T08:37:51.814Z,100.00
2024-02-18T08:40:18.578Z,100.00
2024-02-18T08:42:45.701Z,100.00
2024-02-18T08:45:12.418Z,100.00
2024-02-18T08:47:39.103Z,100.00
2024-02-18T08:50:06.280Z,100.00
2024-02-18T08:52:32.883Z,100.00
2024-02-18T08:54:59.435Z,100.00
2024-02-18T08:57:26.089Z,100.00
2024-02-18T08:59:52.873Z,100.00
2024-02-18T09:02:20.125Z,100.00
2024-02-18T09:04:46.971Z,100.00
2024-02-18T09:07:13.704Z,100.00
2024-02-18T09:09:40.292Z,100.00
2024-02-18T09:12:07.323Z,100.00
2024-02-18T09:14:33.802Z,100.00
2024-02-18T09:17:00.307Z,100.00
2024-02-18T09:19:27.097Z,100.00
2024-02-18T09:21:53.896Z,100.00
2024-02-18T09:24:20.740Z,100.00
2024-02-18T09:26:47.246Z,100.00
2024-02-18T09:29:13.812Z,100.00
2024-02-18T09:31:40.458Z,100.00
2024-02-18T09:34:07.724Z,100.00
2024-02-18T09:36:34.663Z,100.00
2024-02-18T09:39:01.614Z,100.00
2024-02-18T09:41:28.941Z,100.00
2024-02-18T09:44:03.682Z,100.00
2024-02-18T09:46:35.497Z,100.00
2024-02-18T09:49:02.647Z,100.00
2024-02-18T09:51:29.713Z,100.00
2024-02-18T09:53:59.115Z,100.00
2024-02-18T09:56:25.714Z,100.00
2024-02-18T09:58:52.230Z,100.00
2024-02-18T10:01:22.118Z,100.00
2024-02-18T10:03:50.139Z,100.00
2024-02-18T10:06:16.912Z,100.00
2024-02-18T10:08:44.787Z,100.00
2024-02-18T10:11:11.558Z,100.00
2024-02-18T10:13:38.354Z,100.00
2024-02-18T10:16:05.457Z,100.00
2024-02-18T10:18:32.410Z,100.00
2024-02-18T10:20:59.175Z,100.00
2024-02-18T10:23:27.446Z,100.00
2024-02-18T10:25:54.101Z,100.00
2024-02-18T10:28:21.373Z,100.00
2024-02-18T10:30:48.197Z,100.00
2024-02-18T10:33:14.925Z,100.00
2024-02-18T10:35:44.171Z,100.00
2024-02-18T10:38:17.239Z,100.00
2024-02-18T10:40:49.213Z,100.00
2024-02-18T10:43:20.099Z,100.00
2024-02-18T10:45:47.691Z,100.00
2024-02-18T10:48:16.212Z,100.00
2024-02-18T10:50:46.976Z,100.00
2024-02-18T10:53:26.817Z,100.00
2024-02-18T10:56:01.699Z,100.00
2024-02-18T10:58:43.422Z,100.00
2024-02-18T11:01:13.864Z,100.00
2024-02-18T11:03:51.240Z,100.00
2024-02-18T11:06:19.078Z,100.00
2024-02-18T11:08:47.074Z,100.00
2024-02-18T11:11:14.295Z,100.00
2024-02-18T11:13:41.896Z,100.00
2024-02-18T11:16:15.576Z,100.00
2024-02-18T11:18:43.565Z,100.00
2024-02-18T11:21:14.186Z,100.00
2024-02-18T11:23:56.655Z,100.00
2024-02-18T11:26:23.722Z,98.86
2024-02-18T11:28:50.369Z,100.00
2024-02-18T11:31:27.295Z,100.00
2024-02-18T11:33:54.569Z,96.47
2024-02-18T11:36:24.346Z,99.46
2024-02-18T11:38:57.254Z,99.98
2024-02-18T11:41:32.299Z,100.00
2024-02-18T11:44:01.047Z,97.62
2024-02-18T11:46:29.298Z,96.02
2024-02-18T11:48:56.936Z,97.69
2024-02-18T11:51:24.758Z,98.38
2024-02-18T11:53:51.554Z,99.60
2024-02-18T11:56:18.239Z,96.78
2024-02-18T11:58:48.068Z,98.32
2024-02-18T12:01:20.556Z,95.18
2024-02-18T12:03:50.132Z,99.87
2024-02-18T12:06:16.746Z,94.59
2024-02-18T12:08:43.412Z,98.34
2024-02-18T12:11:10.286Z,96.02
2024-02-18T12:13:36.953Z,90.60
2024-02-18T12:16:05.548Z,97.59
2024-02-18T12:18:32.432Z,97.50
2024-02-18T12:20:59.213Z,98.93
2024-02-18T12:23:27.558Z,94.60
2024-02-18T12:25:55.073Z,95.20
2024-02-18T12:28:22.000Z,95.00
2024-02-18T12:30:50.109Z,91.76
2024-02-18T12:33:17.467Z,95.69
2024-02-18T12:35:44.671Z,95.44
2024-02-18T12:38:11.765Z,96.74
2024-02-18T12:40:41.115Z,99.62
2024-02-18T12:45:43.852Z,99.09
2024-02-18T12:48:15.941Z,97.43
2024-02-18T12:50:43.501Z,98.03
2024-02-18T12:53:10.598Z,99.14
2024-02-18T12:55:38.550Z,100.00
2024-02-18T12:58:05.634Z,100.00
2024-02-18T13:00:32.708Z,100.00
2024-02-18T13:03:01.954Z,99.31
2024-02-18T13:05:28.571Z,99.60
2024-02-18T13:07:57.661Z,100.00
2024-02-18T13:10:24.406Z,100.00
2024-02-18T13:12:51.362Z,99.90
2024-02-18T13:15:18.462Z,86.29
2024-02-18T13:17:49.756Z,96.93
2024-02-18T13:20:16.599Z,96.24
2024-02-18T13:22:44.030Z,96.77
2024-02-18T13:25:10.862Z,89.04
2024-02-18T13:27:37.544Z,91.86
2024-02-18T13:30:04.763Z,96.28
2024-02-18T13:32:31.513Z,97.70
2024-02-18T13:34:58.144Z,95.17
2024-02-18T13:37:24.767Z,90.08
2024-02-18T13:39:51.407Z,93.10
2024-02-18T13:42:21.647Z,90.35
2024-02-18T13:44:48.607Z,95.29
2024-02-18T13:47:15.434Z,94.42
2024-02-18T13:49:42.107Z,93.03
2024-02-18T13:52:09.224Z,94.28
2024-02-18T13:54:35.873Z,98.71
2024-02-18T13:57:02.558Z,97.76
2024-02-18T13:59:29.219Z,98.35
2024-02-18T14:01:55.822Z,97.43
2024-02-18T14:04:23.038Z,99.83
2024-02-18T14:06:49.622Z,99.72
2024-02-18T14:09:16.146Z,95.08
2024-02-18T14:11:43.462Z,96.14
2024-02-18T14:14:10.729Z,99.25
2024-02-18T14:16:37.609Z,100.00
2024-02-18T14:19:04.528Z,100.00
2024-02-18T14:21:31.761Z,97.35
2024-02-18T14:23:58.644Z,97.43
2024-02-18T14:26:25.494Z,100.00
2024-02-18T14:28:53.839Z,100.00
2024-02-18T14:31:20.556Z,98.73
2024-02-18T14:33:47.569Z,100.00
2024-02-18T14:36:16.105Z,100.00
2024-02-18T14:38:42.613Z,100.00
2024-02-18T14:41:10.477Z,100.00
2024-02-18T14:43:36.949Z,100.00
2024-02-18T14:46:03.512Z,100.00
2024-02-18T14:48:30.121Z,94.84
2024-02-18T14:50:56.651Z,99.01
2024-02-18T14:53:23.109Z,100.00
2024-02-18T14:55:49.741Z,100.00
2024-02-18T14:58:16.289Z,100.00
2024-02-18T15:00:42.890Z,100.00
2024-02-18T15:03:09.558Z,100.00
2024-02-18T15:05:36.165Z,100.00
2024-02-18T15:08:03.441Z,100.00
2024-02-18T15:10:31.240Z,100.00
2024-02-18T15:12:57.734Z,100.00
2024-02-18T15:15:24.356Z,100.00
2024-02-18T15:17:50.872Z,100.00
2024-02-18T15:20:17.539Z,100.00
2024-02-18T15:22:44.021Z,100.00
2024-02-18T15:25:12.164Z,100.00
2024-02-18T15:27:39.093Z,100.00
2024-02-18T15:30:06.559Z,100.00
2024-02-18T15:32:33.096Z,100.00
2024-02-18T15:34:59.735Z,100.00
2024-02-18T15:37:26.330Z,100.00
2024-02-18T15:39:52.873Z,100.00
2024-02-18T15:42:19.382Z,100.00
2024-02-18T15:44:45.862Z,100.00
2024-02-18T15:47:12.366Z,100.00
2024-02-18T15:49:39.983Z,100.00
2024-02-18T15:52:07.115Z,100.00
2024-02-18T15:54:33.649Z,100.00
2024-02-18T15:57:00.142Z,100.00
2024-02-18T15:59:27.155Z,100.00
2024-02-18T16:01:53.965Z,100.00
2024-02-18T16:04:20.980Z,100.00
2024-02-18T16:06:47.706Z,100.00
2024-02-18T16:09:14.203Z,100.00
2024-02-18T16:11:40.743Z,100.00
2024-02-18T16:14:07.224Z,100.00
2024-02-18T16:16:33.705Z,100.00
2024-02-18T16:19:00.403Z,100.00
2024-02-18T16:21:26.985Z,100.00
2024-02-18T16:23:59.533Z,100.00
2024-02-18T16:26:27.421Z,100.00
2024-02-18T16:28:54.038Z,100.00
2024-02-18T16:31:20.705Z,100.00
2024-02-18T16:33:47.278Z,100.00
2024-02-18T16:36:13.889Z,100.00
2024-02-18T16:38:42.404Z,100.00
2024-02-18T16:41:09.718Z,100.00
2024-02-18T16:43:36.233Z,100.00
2024-02-18T16:46:04.348Z,100.00
2024-02-18T16:48:36.130Z,100.00
2024-02-18T16:51:03.099Z,100.00
2024-02-18T16:53:29.643Z,100.00
2024-02-18T16:55:57.058Z,100.00
2024-02-18T16:58:23.859Z,100.00
2024-02-18T17:00:50.555Z,100.00
2024-02-18T17:03:17.209Z,100.00
2024-02-18T17:05:43.738Z,100.00
2024-02-18T17:08:12.112Z,100.00
2024-02-18T17:10:38.905Z,100.00
2024-02-18T17:13:09.087Z,100.00
2024-02-18T17:15:36.616Z,100.00
2024-02-18T17:18:03.561Z,100.00
2024-02-18T17:20:30.132Z,100.00
2024-02-18T17:22:56.751Z,100.00
2024-02-18T17:25:23.483Z,100.00
2024-02-18T17:27:50.077Z,100.00
2024-02-18T17:30:17.212Z,100.00
2024-02-18T17:32:44.383Z,100.00
2024-02-18T17:35:12.161Z,100.00
2024-02-18T17:37:38.788Z,100.00
2024-02-18T17:40:06.225Z,100.00
2024-02-18T17:42:33.003Z,100.00
2024-02-18T17:44:59.584Z,100.00
2024-02-18T17:47:29.105Z,100.00
2024-02-18T17:49:55.895Z,100.00
2024-02-18T17:52:22.615Z,100.00
2024-02-18T17:54:49.172Z,100.00
2024-02-18T17:57:15.750Z,100.00
2024-02-18T17:59:52.143Z,100.00
2024-02-18T18:02:18.736Z,100.00
2024-02-18T18:04:46.676Z,100.00
2024-02-18T18:07:13.547Z,100.00
2024-02-18T18:09:43.756Z,100.00
2024-02-18T18:12:11.450Z,100.00
2024-02-18T18:14:43.966Z,100.00
2024-02-18T18:17:10.642Z,100.00
2024-02-18T18:19:37.315Z,100.00
2024-02-18T18:22:03.995Z,100.00
2024-02-18T18:24:30.592Z,100.00
2024-02-18T18:26:57.073Z,100.00
2024-02-18T18:29:25.220Z,100.00
2024-02-18T18:31:52.923Z,100.00
2024-02-18T18:34:19.575Z,100.00
2024-02-18T18:36:46.250Z,100.00
2024-02-18T18:39:13.422Z,100.00
2024-02-18T18:41:41.014Z,100.00
2024-02-18T18:44:07.491Z,100.00
2024-02-18T18:46:35.324Z,100.00
2024-02-18T18:49:06.089Z,100.00
2024-02-18T18:51:33.333Z,100.00
2024-02-18T18:54:01.701Z,100.00
2024-02-18T18:56:28.491Z,100.00
2024-02-18T18:59:10.468Z,100.00
2024-02-18T19:02:36.838Z,100.00
2024-02-18T19:05:03.737Z,100.00
2024-02-18T19:07:33.553Z,100.00
2024-02-18T19:10:02.481Z,100.00
2024-02-18T19:12:30.428Z,100.00
2024-02-18T19:14:56.952Z,100.00
2024-02-18T19:17:25.851Z,100.00
2024-02-18T19:19:52.605Z,100.00
2024-02-18T19:22:20.511Z,100.00
2024-02-18T19:24:49.543Z,100.00
2024-02-18T19:27:18.652Z,100.00
2024-02-18T19:29:46.206Z,100.00
2024-02-18T19:32:18.308Z,100.00
2024-02-18T19:34:45.995Z,100.00
2024-02-18T19:37:12.607Z,100.00
2024-02-18T19:39:39.552Z,100.00
2024-02-18T19:42:08.935Z,100.00
2024-02-18T19:44:40.226Z,100.00
2024-02-18T19:47:06.761Z,100.00
2024-02-18T19:49:33.392Z,100.00
2024-02-18T19:52:00.914Z,100.00
2024-02-18T19:54:29.642Z,100.00
2024-02-18T19:57:01.707Z,100.00
2024-02-18T19:59:28.242Z,100.00
2024-02-18T20:01:58.416Z,100.00
2024-02-18T20:04:25.202Z,100.00
2024-02-18T20:06:54.993Z,100.00
2024-02-18T20:09:21.648Z,100.00
2024-02-18T20:11:51.530Z,100.00
2024-02-18T20:14:19.536Z,100.00
2024-02-18T20:16:46.203Z,100.00
2024-02-18T20:19:15.964Z,100.00
2024-02-18T20:21:43.546Z,100.00
2024-02-18T20:24:10.322Z,100.00
2024-02-18T20:26:37.674Z,100.00
2024-02-18T20:29:04.388Z,100.00
2024-02-18T20:31:30.990Z,100.00
2024-02-18T20:33:57.557Z,100.00
2024-02-18T20:36:24.168Z,100.00
2024-02-18T20:38:51.401Z,100.00
2024-02-18T20:41:17.956Z,100.00
2024-02-18T20:43:44.465Z,100.00
2024-02-18T20:46:12.822Z,100.00
2024-02-18T20:48:40.298Z,100.00
2024-02-18T20:51:06.924Z,100.00
2024-02-18T20:53:33.633Z,100.00
2024-02-18T20:56:00.356Z,100.00
2024-02-18T20:58:26.949Z,100.00
2024-02-18T21:00:53.513Z,100.00
2024-02-18T21:03:21.971Z,100.00
2024-02-18T21:05:49.150Z,100.00
2024-02-18T21:08:15.799Z,100.00
2024-02-18T21:10:42.496Z,100.00
2024-02-18T21:13:09.188Z,100.00
2024-02-18T21:15:35.777Z,100.00
2024-02-18T21:18:02.594Z,100.00
2024-02-18T21:20:29.714Z,100.00
2024-02-18T21:22:56.266Z,100.00
2024-02-18T21:25:24.004Z,100.00
2024-02-18T21:27:50.878Z,100.00
2024-02-18T21:30:17.492Z,100.00
2024-02-18T21:32:44.133Z,100.00
2024-02-18T21:35:12.493Z,100.00
2024-02-18T21:37:39.214Z,100.00
2024-02-18T21:40:07.222Z,100.00
2024-02-18T21:42:35.472Z,100.00
2024-02-18T21:45:02.346Z,100.00
2024-02-18T21:47:28.950Z,100.00
2024-02-18T21:49:57.789Z,100.00
2024-02-18T21:52:24.549Z,100.00
2024-02-18T21:54:51.669Z,100.00
2024-02-18T21:57:18.825Z,100.00
2024-02-18T21:59:46.173Z,100.00
2024-02-18T22:02:13.021Z,100.00
2024-02-18T22:04:40.276Z,100.00
2024-02-18T22:07:13.825Z,100.00
2024-02-18T22:09:44.893Z,100.00
2024-02-18T22:12:11.637Z,100.00
2024-02-18T22:14:38.116Z,100.00
2024-02-18T22:17:04.710Z,100.00
2024-02-18T22:19:31.384Z,100.00
2024-02-18T22:21:58.000Z,100.00
2024-02-18T22:24:25.456Z,100.00
2024-02-18T22:26:52.183Z,100.00
2024-02-18T22:29:18.717Z,100.00
2024-02-18T22:31:45.392Z,100.00
2024-02-18T22:34:12.542Z,100.00
2024-02-18T22:36:40.291Z,100.00
2024-02-18T22:39:07.348Z,100.00
2024-02-18T22:41:34.487Z,100.00
2024-02-18T22:44:02.096Z,100.00
2024-02-18T22:46:28.667Z,100.00
2024-02-18T22:48:55.340Z,100.00
2024-02-18T22:51:22.514Z,100.00
2024-02-18T22:53:49.057Z,100.00
2024-02-18T22:56:15.560Z,100.00
2024-02-18T22:58:42.354Z,100.00
2024-02-18T23:01:09.688Z,100.00
2024-02-18T23:03:36.489Z,100.00
2024-02-18T23:06:03.241Z,100.00
2024-02-18T23:08:29.805Z,100.00
2024-02-18T23:10:56.563Z,100.00
2024-02-18T23:13:23.625Z,100.00
2024-02-18T23:15:50.361Z,100.00
2024-02-18T23:18:17.130Z,100.00
2024-02-18T23:20:44.153Z,100.00
2024-02-18T23:23:10.879Z,100.00
2024-02-18T23:25:37.464Z,100.00
2024-02-18T23:28:05.016Z,100.00
2024-02-18T23:30:31.660Z,100.00
2024-02-18T23:32:59.091Z,100.00
2024-02-18T23:35:25.750Z,100.00
2024-02-18T23:37:52.280Z,100.00
2024-02-18T23:40:19.212Z,100.00
2024-02-18T23:42:45.974Z,100.00
2024-02-18T23:45:12.558Z,100.00
2024-02-18T23:47:39.279Z,100.00
2024-02-18T23:50:06.419Z,100.00
2024-02-18T23:52:32.897Z,100.00
2024-02-18T23:55:00.042Z,100.00
2024-02-18T23:57:27.726Z,100.00
2024-02-18T23:59:54.324Z,100.00
